sensor_id;sensor_type;location;lat;lon;timestamp;pressure;altitude;pressure_sealevel;temperature;humidity
70256;BME280;57669;52.624;-1.688;2023-03-15T10:36:19;100958.98;;;14.95;38.91
70256;BME280;57669;52.624;-1.688;2023-03-15T10:38:45;100957.84;;;15.69;35.08
70256;BME280;57669;52.624;-1.688;2023-03-15T10:41:11;100958.47;;;18.58;32.48
70256;BME280;57669;52.624;-1.688;2023-03-15T10:43:34;100958.26;;;19.81;31.00
70256;BME280;57669;52.624;-1.688;2023-03-15T10:46:01;100950.18;;;19.92;30.01
70256;BME280;57669;52.624;-1.688;2023-03-15T10:48:26;100948.15;;;20.41;29.22
70256;BME280;57669;52.624;-1.688;2023-03-15T10:50:51;100940.97;;;20.16;28.85
70256;BME280;57669;52.624;-1.688;2023-03-15T10:53:18;100941.91;;;20.51;28.67
70256;BME280;57669;52.624;-1.688;2023-03-15T14:06:40;100820.46;;;2.40;62.77
70256;BME280;57669;52.624;-1.688;2023-03-15T14:09:09;100812.21;;;3.64;54.04
70256;BME280;57669;52.624;-1.688;2023-03-15T14:11:35;100810.19;;;4.02;53.87
70256;BME280;57669;52.624;-1.688;2023-03-15T14:13:56;100809.94;;;4.04;53.29
70256;BME280;57669;52.624;-1.688;2023-03-15T14:16:30;100812.40;;;4.92;52.83
70256;BME280;57669;52.624;-1.688;2023-03-15T14:18:45;100803.19;;;4.88;53.28
70256;BME280;57669;52.624;-1.688;2023-03-15T14:21:14;100797.34;;;5.21;51.17
70256;BME280;57669;52.624;-1.688;2023-03-15T14:23:39;100800.52;;;5.92;51.07
70256;BME280;57669;52.624;-1.688;2023-03-15T14:26:08;100801.33;;;4.68;54.89
70256;BME280;57669;52.624;-1.688;2023-03-15T14:28:27;100795.44;;;5.29;52.04
70256;BME280;57669;52.624;-1.688;2023-03-15T14:30:53;100797.48;;;5.80;52.18
70256;BME280;57669;52.624;-1.688;2023-03-15T14:33:23;100794.84;;;5.54;52.08
70256;BME280;57669;52.624;-1.688;2023-03-15T14:35:42;100798.26;;;3.84;55.16
70256;BME280;57669;52.624;-1.688;2023-03-15T14:38:14;100795.65;;;4.20;55.93
70256;BME280;57669;52.624;-1.688;2023-03-15T14:40:33;100792.30;;;3.76;58.48
70256;BME280;57669;52.624;-1.688;2023-03-15T14:42:57;100786.09;;;5.26;54.58
70256;BME280;57669;52.624;-1.688;2023-03-15T14:45:22;100783.16;;;5.08;54.35
70256;BME280;57669;52.624;-1.688;2023-03-15T14:47:48;100783.10;;;3.77;56.48
70256;BME280;57669;52.624;-1.688;2023-03-15T14:50:13;100784.13;;;3.13;60.30
70256;BME280;57669;52.624;-1.688;2023-03-15T14:52:37;100782.68;;;4.23;58.89
70256;BME280;57669;52.624;-1.688;2023-03-15T14:55:03;100771.25;;;4.86;57.18
70256;BME280;57669;52.624;-1.688;2023-03-15T14:57:30;100772.38;;;4.30;57.41
70256;BME280;57669;52.624;-1.688;2023-03-15T15:02:18;100765.70;;;4.12;59.66
70256;BME280;57669;52.624;-1.688;2023-03-15T15:04:43;100754.37;;;4.99;58.18
70256;BME280;57669;52.624;-1.688;2023-03-15T15:07:10;100757.23;;;4.42;58.35
70256;BME280;57669;52.624;-1.688;2023-03-15T15:09:34;100760.69;;;4.37;59.03
70256;BME280;57669;52.624;-1.688;2023-03-15T15:12:05;100751.72;;;4.70;60.12
70256;BME280;57669;52.624;-1.688;2023-03-15T15:14:25;100756.55;;;3.85;61.34
70256;BME280;57669;52.624;-1.688;2023-03-15T15:16:50;100750.02;;;4.79;59.99
70256;BME280;57669;52.624;-1.688;2023-03-15T15:19:15;100748.35;;;4.75;58.73
70256;BME280;57669;52.624;-1.688;2023-03-15T15:21:41;100739.50;;;5.36;58.73
70256;BME280;57669;52.624;-1.688;2023-03-15T15:24:12;100738.38;;;5.11;58.16
70256;BME280;57669;52.624;-1.688;2023-03-15T15:26:31;100740.52;;;4.54;59.38
70256;BME280;57669;52.624;-1.688;2023-03-15T15:28:57;100736.07;;;5.02;59.10
70256;BME280;57669;52.624;-1.688;2023-03-15T15:31:23;100730.97;;;4.40;59.75
70256;BME280;57669;52.624;-1.688;2023-03-15T15:33:47;100730.78;;;4.00;61.37
70256;BME280;57669;52.624;-1.688;2023-03-15T15:36:16;100724.64;;;3.93;61.46
70256;BME280;57669;52.624;-1.688;2023-03-15T15:38:38;100721.96;;;4.53;60.90
70256;BME280;57669;52.624;-1.688;2023-03-15T15:41:03;100724.62;;;3.84;63.57
70256;BME280;57669;52.624;-1.688;2023-03-15T15:43:29;100712.48;;;5.30;59.95
70256;BME280;57669;52.624;-1.688;2023-03-15T15:45:54;100709.50;;;4.33;61.03
70256;BME280;57669;52.624;-1.688;2023-03-15T15:48:19;100702.65;;;4.42;61.34
70256;BME280;57669;52.624;-1.688;2023-03-15T15:50:44;100699.31;;;4.90;61.60
70256;BME280;57669;52.624;-1.688;2023-03-15T15:53:13;100695.35;;;4.93;60.08
70256;BME280;57669;52.624;-1.688;2023-03-15T15:55:36;100693.46;;;4.03;63.64
70256;BME280;57669;52.624;-1.688;2023-03-15T15:58:01;100690.28;;;4.41;62.29
70256;BME280;57669;52.624;-1.688;2023-03-15T16:00:27;100687.11;;;5.10;60.12
70256;BME280;57669;52.624;-1.688;2023-03-15T16:02:53;100679.55;;;4.94;59.81
70256;BME280;57669;52.624;-1.688;2023-03-15T16:05:18;100679.75;;;4.80;59.78
70256;BME280;57669;52.624;-1.688;2023-03-15T16:07:42;100673.55;;;5.00;60.92
70256;BME280;57669;52.624;-1.688;2023-03-15T16:10:19;100674.01;;;5.37;60.34
70256;BME280;57669;52.624;-1.688;2023-03-15T16:12:33;100665.64;;;4.13;62.06
70256;BME280;57669;52.624;-1.688;2023-03-15T16:14:58;100659.16;;;4.11;63.16
70256;BME280;57669;52.624;-1.688;2023-03-15T16:17:23;100657.09;;;4.21;62.87
70256;BME280;57669;52.624;-1.688;2023-03-15T16:19:48;100655.33;;;4.99;62.64
70256;BME280;57669;52.624;-1.688;2023-03-15T16:22:20;100651.21;;;3.86;64.08
70256;BME280;57669;52.624;-1.688;2023-03-15T16:24:41;100656.20;;;3.63;64.80
70256;BME280;57669;52.624;-1.688;2023-03-15T16:27:06;100648.25;;;3.91;65.05
70256;BME280;57669;52.624;-1.688;2023-03-15T16:29:35;100642.01;;;5.02;61.66
70256;BME280;57669;52.624;-1.688;2023-03-15T16:31:56;100634.87;;;4.56;62.17
70256;BME280;57669;52.624;-1.688;2023-03-15T16:34:23;100634.21;;;4.63;62.64
70256;BME280;57669;52.624;-1.688;2023-03-15T16:36:55;100631.48;;;4.12;64.48
70256;BME280;57669;52.624;-1.688;2023-03-15T16:39:13;100631.35;;;4.17;64.90
70256;BME280;57669;52.624;-1.688;2023-03-15T16:41:43;100627.59;;;4.51;63.30
70256;BME280;57669;52.624;-1.688;2023-03-15T16:44:09;100627.92;;;3.64;65.11
70256;BME280;57669;52.624;-1.688;2023-03-15T16:46:31;100625.41;;;3.48;66.52
70256;BME280;57669;52.624;-1.688;2023-03-15T16:48:54;100621.68;;;4.03;65.30
70256;BME280;57669;52.624;-1.688;2023-03-15T16:51:21;100619.08;;;3.42;66.35
70256;BME280;57669;52.624;-1.688;2023-03-15T16:53:45;100611.56;;;4.40;64.76
70256;BME280;57669;52.624;-1.688;2023-03-15T16:56:12;100613.21;;;4.61;64.02
70256;BME280;57669;52.624;-1.688;2023-03-15T16:58:36;100611.55;;;5.12;62.99
70256;BME280;57669;52.624;-1.688;2023-03-15T17:01:02;100611.31;;;4.82;61.35
70256;BME280;57669;52.624;-1.688;2023-03-15T17:03:27;100602.93;;;4.95;62.64
70256;BME280;57669;52.624;-1.688;2023-03-15T17:05:53;100608.89;;;4.19;63.47
70256;BME280;57669;52.624;-1.688;2023-03-15T17:08:19;100595.38;;;4.10;65.37
70256;BME280;57669;52.624;-1.688;2023-03-15T17:10:44;100596.65;;;3.96;65.76
70256;BME280;57669;52.624;-1.688;2023-03-15T17:13:13;100595.15;;;4.10;65.72
70256;BME280;57669;52.624;-1.688;2023-03-15T17:15:35;100594.41;;;4.75;62.56
70256;BME280;57669;52.624;-1.688;2023-03-15T17:18:00;100591.50;;;5.30;61.36
70256;BME280;57669;52.624;-1.688;2023-03-15T17:20:26;100590.42;;;4.70;63.08
70256;BME280;57669;52.624;-1.688;2023-03-15T17:22:57;100581.53;;;4.53;63.81
70256;BME280;57669;52.624;-1.688;2023-03-15T17:25:18;100575.77;;;5.55;61.08
70256;BME280;57669;52.624;-1.688;2023-03-15T17:27:43;100574.56;;;4.37;63.93
70256;BME280;57669;52.624;-1.688;2023-03-15T17:30:14;100570.98;;;4.43;63.97
70256;BME280;57669;52.624;-1.688;2023-03-15T17:32:33;100565.28;;;4.69;63.50
70256;BME280;57669;52.624;-1.688;2023-03-15T17:34:58;100560.62;;;5.21;62.07
70256;BME280;57669;52.624;-1.688;2023-03-15T17:37:23;100557.60;;;4.73;63.22
70256;BME280;57669;52.624;-1.688;2023-03-15T17:39:49;100549.54;;;5.57;61.14
70256;BME280;57669;52.624;-1.688;2023-03-15T17:42:19;100555.81;;;5.27;62.12
70256;BME280;57669;52.624;-1.688;2023-03-15T17:44:41;100554.95;;;4.36;64.08
70256;BME280;57669;52.624;-1.688;2023-03-15T17:47:04;100557.68;;;3.87;65.90
70256;BME280;57669;52.624;-1.688;2023-03-15T17:49:30;100554.66;;;5.44;61.76
70256;BME280;57669;52.624;-1.688;2023-03-15T17:51:55;100560.80;;;5.87;59.37
70256;BME280;57669;52.624;-1.688;2023-03-15T17:54:21;100565.43;;;5.81;59.26
70256;BME280;57669;52.624;-1.688;2023-03-15T17:56:46;100560.77;;;6.30;57.94
70256;BME280;57669;52.624;-1.688;2023-03-15T17:59:12;100554.59;;;5.26;61.18
70256;BME280;57669;52.624;-1.688;2023-03-15T18:01:37;100555.00;;;5.21;61.85
70256;BME280;57669;52.624;-1.688;2023-03-15T18:04:04;100550.90;;;5.58;61.16
70256;BME280;57669;52.624;-1.688;2023-03-15T18:06:33;100551.25;;;5.25;62.50
70256;BME280;57669;52.624;-1.688;2023-03-15T18:08:53;100547.57;;;5.16;62.13
70256;BME280;57669;52.624;-1.688;2023-03-15T18:11:22;100547.51;;;4.86;62.93
70256;BME280;57669;52.624;-1.688;2023-03-15T18:13:43;100547.62;;;4.82;63.46
70256;BME280;57669;52.624;-1.688;2023-03-15T18:16:11;100538.12;;;5.35;62.40
70256;BME280;57669;52.624;-1.688;2023-03-15T18:18:34;100537.74;;;5.62;61.75
70256;BME280;57669;52.624;-1.688;2023-03-15T18:21:00;100529.95;;;5.33;61.77
70256;BME280;57669;52.624;-1.688;2023-03-15T18:23:26;100533.49;;;4.43;63.12
70256;BME280;57669;52.624;-1.688;2023-03-15T18:25:53;100534.98;;;4.55;64.46
70256;BME280;57669;52.624;-1.688;2023-03-15T18:28:18;100532.88;;;4.92;64.04
70256;BME280;57669;52.624;-1.688;2023-03-15T18:30:43;100526.78;;;4.95;63.68
70256;BME280;57669;52.624;-1.688;2023-03-15T18:33:09;100531.46;;;4.82;64.45
70256;BME280;57669;52.624;-1.688;2023-03-15T18:35:35;100532.15;;;5.27;63.58
70256;BME280;57669;52.624;-1.688;2023-03-15T18:37:59;100533.07;;;4.70;63.69
70256;BME280;57669;52.624;-1.688;2023-03-15T18:40:27;100531.44;;;4.34;65.66
70256;BME280;57669;52.624;-1.688;2023-03-15T18:42:53;100535.04;;;5.08;64.12
70256;BME280;57669;52.624;-1.688;2023-03-15T18:45:19;100526.14;;;4.55;66.02
70256;BME280;57669;52.624;-1.688;2023-03-15T18:47:41;100520.72;;;3.72;68.46
70256;BME280;57669;52.624;-1.688;2023-03-15T18:50:07;100516.61;;;3.98;67.07
70256;BME280;57669;52.624;-1.688;2023-03-15T18:52:32;100516.66;;;3.88;67.66
70256;BME280;57669;52.624;-1.688;2023-03-15T18:54:57;100513.44;;;4.87;65.33
70256;BME280;57669;52.624;-1.688;2023-03-15T18:57:22;100513.55;;;4.67;65.32
70256;BME280;57669;52.624;-1.688;2023-03-15T18:59:48;100509.72;;;4.54;65.97
70256;BME280;57669;52.624;-1.688;2023-03-15T19:02:13;100513.28;;;4.34;65.41
70256;BME280;57669;52.624;-1.688;2023-03-15T19:04:39;100501.02;;;5.04;64.12
70256;BME280;57669;52.624;-1.688;2023-03-15T19:07:04;100504.30;;;4.36;65.80
70256;BME280;57669;52.624;-1.688;2023-03-15T19:09:29;100492.12;;;4.35;66.52
70256;BME280;57669;52.624;-1.688;2023-03-15T19:11:56;100489.10;;;3.46;68.72
70256;BME280;57669;52.624;-1.688;2023-03-15T19:14:20;100487.96;;;3.67;69.17
70256;BME280;57669;52.624;-1.688;2023-03-15T19:16:47;100478.95;;;4.24;67.38
70256;BME280;57669;52.624;-1.688;2023-03-15T19:19:11;100475.43;;;4.44;66.70
70256;BME280;57669;52.624;-1.688;2023-03-15T19:21:37;100468.66;;;3.90;68.48
70256;BME280;57669;52.624;-1.688;2023-03-15T19:24:02;100463.06;;;4.17;67.27
70256;BME280;57669;52.624;-1.688;2023-03-15T19:26:28;100461.30;;;3.78;68.62
70256;BME280;57669;52.624;-1.688;2023-03-15T19:28:53;100457.14;;;4.31;67.53
70256;BME280;57669;52.624;-1.688;2023-03-15T19:31:18;100455.16;;;3.96;68.72
70256;BME280;57669;52.624;-1.688;2023-03-15T19:33:44;100453.26;;;4.17;68.46
70256;BME280;57669;52.624;-1.688;2023-03-15T19:36:10;100451.57;;;4.72;66.37
70256;BME280;57669;52.624;-1.688;2023-03-15T19:38:35;100447.36;;;4.86;65.47
70256;BME280;57669;52.624;-1.688;2023-03-15T19:41:03;100445.54;;;4.40;66.46
70256;BME280;57669;52.624;-1.688;2023-03-15T19:43:26;100437.72;;;3.71;68.98
70256;BME280;57669;52.624;-1.688;2023-03-15T19:45:51;100434.64;;;3.75;69.91
70256;BME280;57669;52.624;-1.688;2023-03-15T19:48:22;100428.39;;;3.00;70.84
70256;BME280;57669;52.624;-1.688;2023-03-15T19:50:47;100427.36;;;3.16;70.98
70256;BME280;57669;52.624;-1.688;2023-03-15T19:53:10;100431.71;;;3.37;69.94
70256;BME280;57669;52.624;-1.688;2023-03-15T19:55:34;100421.92;;;3.85;69.05
70256;BME280;57669;52.624;-1.688;2023-03-15T19:57:58;100422.15;;;3.83;69.59
70256;BME280;57669;52.624;-1.688;2023-03-15T20:00:23;100421.68;;;3.43;70.15
70256;BME280;57669;52.624;-1.688;2023-03-15T20:02:51;100415.08;;;3.87;67.96
70256;BME280;57669;52.624;-1.688;2023-03-15T20:05:15;100414.59;;;3.64;68.48
70256;BME280;57669;52.624;-1.688;2023-03-15T20:07:39;100401.67;;;3.37;68.79
70256;BME280;57669;52.624;-1.688;2023-03-15T20:10:05;100403.69;;;3.73;69.35
70256;BME280;57669;52.624;-1.688;2023-03-15T20:12:30;100398.00;;;3.92;67.47
70256;BME280;57669;52.624;-1.688;2023-03-15T20:14:55;100404.47;;;3.79;68.77
70256;BME280;57669;52.624;-1.688;2023-03-15T20:17:23;100401.75;;;3.94;68.13
70256;BME280;57669;52.624;-1.688;2023-03-15T20:19:47;100396.40;;;4.03;67.71
70256;BME280;57669;52.624;-1.688;2023-03-15T20:22:11;100398.64;;;3.59;68.65
70256;BME280;57669;52.624;-1.688;2023-03-15T20:24:36;100398.41;;;4.03;67.49
70256;BME280;57669;52.624;-1.688;2023-03-15T20:27:01;100385.55;;;3.95;66.66
70256;BME280;57669;52.624;-1.688;2023-03-15T20:29:27;100383.74;;;3.91;67.55
70256;BME280;57669;52.624;-1.688;2023-03-15T20:31:53;100387.26;;;4.91;65.69
70256;BME280;57669;52.624;-1.688;2023-03-15T20:34:17;100391.26;;;3.49;68.68
70256;BME280;57669;52.624;-1.688;2023-03-15T20:36:42;100378.94;;;4.32;66.23
70256;BME280;57669;52.624;-1.688;2023-03-15T20:39:08;100376.98;;;4.56;65.71
70256;BME280;57669;52.624;-1.688;2023-03-15T20:41:34;100377.76;;;3.82;66.68
70256;BME280;57669;52.624;-1.688;2023-03-15T20:43:58;100368.03;;;3.96;68.07
70256;BME280;57669;52.624;-1.688;2023-03-15T20:46:23;100372.03;;;4.15;68.50
70256;BME280;57669;52.624;-1.688;2023-03-15T20:48:49;100366.92;;;3.78;67.89
70256;BME280;57669;52.624;-1.688;2023-03-15T20:51:13;100360.79;;;4.38;68.31
70256;BME280;57669;52.624;-1.688;2023-03-15T20:53:38;100358.30;;;3.97;67.73
70256;BME280;57669;52.624;-1.688;2023-03-15T20:56:04;100356.87;;;3.84;67.70
70256;BME280;57669;52.624;-1.688;2023-03-15T20:58:29;100344.95;;;4.41;67.01
70256;BME280;57669;52.624;-1.688;2023-03-15T21:01:00;100344.86;;;4.12;66.81
70256;BME280;57669;52.624;-1.688;2023-03-15T21:03:19;100349.04;;;3.75;67.96
70256;BME280;57669;52.624;-1.688;2023-03-15T21:05:44;100342.75;;;5.21;65.12
70256;BME280;57669;52.624;-1.688;2023-03-15T21:08:09;100344.99;;;4.34;66.60
70256;BME280;57669;52.624;-1.688;2023-03-15T21:10:34;100345.30;;;4.90;64.67
70256;BME280;57669;52.624;-1.688;2023-03-15T21:12:59;100343.22;;;4.55;65.61
70256;BME280;57669;52.624;-1.688;2023-03-15T21:15:25;100341.49;;;4.38;67.40
70256;BME280;57669;52.624;-1.688;2023-03-15T21:17:53;100338.96;;;4.63;66.22
70256;BME280;57669;52.624;-1.688;2023-03-15T21:20:16;100336.18;;;3.99;67.79
70256;BME280;57669;52.624;-1.688;2023-03-15T21:22:41;100331.22;;;4.18;67.78
70256;BME280;57669;52.624;-1.688;2023-03-15T21:25:07;100330.73;;;4.39;68.54
70256;BME280;57669;52.624;-1.688;2023-03-15T21:27:31;100333.64;;;3.64;70.97
70256;BME280;57669;52.624;-1.688;2023-03-15T21:29:57;100321.67;;;4.33;67.40
70256;BME280;57669;52.624;-1.688;2023-03-15T21:32:22;100326.46;;;3.98;67.85
70256;BME280;57669;52.624;-1.688;2023-03-15T21:34:47;100325.64;;;4.02;68.28
70256;BME280;57669;52.624;-1.688;2023-03-15T21:37:18;100325.69;;;4.02;68.26
70256;BME280;57669;52.624;-1.688;2023-03-15T21:39:38;100326.86;;;3.98;69.69
70256;BME280;57669;52.624;-1.688;2023-03-15T21:42:10;100321.24;;;3.87;68.60
70256;BME280;57669;52.624;-1.688;2023-03-15T21:44:29;100314.63;;;4.57;67.77
70256;BME280;57669;52.624;-1.688;2023-03-15T21:46:54;100304.87;;;3.68;68.90
70256;BME280;57669;52.624;-1.688;2023-03-15T21:49:19;100300.01;;;4.03;69.07
70256;BME280;57669;52.624;-1.688;2023-03-15T21:51:44;100295.16;;;4.11;68.57
70256;BME280;57669;52.624;-1.688;2023-03-15T21:54:10;100299.73;;;3.80;70.34
70256;BME280;57669;52.624;-1.688;2023-03-15T21:56:35;100300.74;;;3.31;72.65
70256;BME280;57669;52.624;-1.688;2023-03-15T21:59:06;100300.00;;;3.19;73.56
70256;BME280;57669;52.624;-1.688;2023-03-15T22:01:27;100292.36;;;3.98;71.29
70256;BME280;57669;52.624;-1.688;2023-03-15T22:03:51;100288.83;;;3.59;71.08
70256;BME280;57669;52.624;-1.688;2023-03-15T22:06:17;100285.22;;;4.81;68.53
70256;BME280;57669;52.624;-1.688;2023-03-15T22:08:41;100279.90;;;4.03;70.40
70256;BME280;57669;52.624;-1.688;2023-03-15T22:11:07;100272.57;;;3.89;71.08
70256;BME280;57669;52.624;-1.688;2023-03-15T22:13:32;100268.65;;;3.07;74.21
70256;BME280;57669;52.624;-1.688;2023-03-15T22:15:57;100269.78;;;2.73;75.98
70256;BME280;57669;52.624;-1.688;2023-03-15T22:18:22;100267.68;;;3.97;71.25
70256;BME280;57669;52.624;-1.688;2023-03-15T22:20:49;100262.48;;;4.00;70.93
70256;BME280;57669;52.624;-1.688;2023-03-15T22:23:13;100259.33;;;4.13;70.73
70256;BME280;57669;52.624;-1.688;2023-03-15T22:25:39;100256.22;;;4.59;68.97
70256;BME280;57669;52.624;-1.688;2023-03-15T22:28:04;100252.26;;;4.75;68.80
70256;BME280;57669;52.624;-1.688;2023-03-15T22:30:29;100243.72;;;4.18;70.00
70256;BME280;57669;52.624;-1.688;2023-03-15T22:32:54;100240.91;;;3.74;71.36
70256;BME280;57669;52.624;-1.688;2023-03-15T22:35:20;100238.33;;;4.73;68.78
70256;BME280;57669;52.624;-1.688;2023-03-15T22:37:46;100228.78;;;4.15;70.80
70256;BME280;57669;52.624;-1.688;2023-03-15T22:40:12;100231.86;;;4.41;70.51
70256;BME280;57669;52.624;-1.688;2023-03-15T22:42:37;100231.70;;;4.53;70.40
70256;BME280;57669;52.624;-1.688;2023-03-15T22:45:03;100226.53;;;3.90;72.05
70256;BME280;57669;52.624;-1.688;2023-03-15T22:47:28;100226.65;;;4.20;70.66
70256;BME280;57669;52.624;-1.688;2023-03-15T22:49:53;100220.84;;;4.05;71.82
70256;BME280;57669;52.624;-1.688;2023-03-15T22:52:19;100221.77;;;3.95;73.14
70256;BME280;57669;52.624;-1.688;2023-03-15T22:54:45;100219.49;;;3.97;74.09
70256;BME280;57669;52.624;-1.688;2023-03-15T22:57:11;100212.85;;;4.19;72.04
70256;BME280;57669;52.624;-1.688;2023-03-15T22:59:36;100212.67;;;4.09;72.47
70256;BME280;57669;52.624;-1.688;2023-03-15T23:02:01;100212.79;;;4.18;71.77
70256;BME280;57669;52.624;-1.688;2023-03-15T23:04:27;100208.86;;;4.73;70.56
70256;BME280;57669;52.624;-1.688;2023-03-15T23:06:52;100203.89;;;4.24;70.75
70256;BME280;57669;52.624;-1.688;2023-03-15T23:09:18;100204.10;;;4.45;70.65
70256;BME280;57669;52.624;-1.688;2023-03-15T23:11:43;100200.04;;;4.73;70.49
70256;BME280;57669;52.624;-1.688;2023-03-15T23:14:09;100206.94;;;4.84;69.12
70256;BME280;57669;52.624;-1.688;2023-03-15T23:16:34;100197.35;;;5.05;69.48
70256;BME280;57669;52.624;-1.688;2023-03-15T23:18:59;100194.75;;;5.11;68.96
70256;BME280;57669;52.624;-1.688;2023-03-15T23:21:25;100195.12;;;4.98;69.45
70256;BME280;57669;52.624;-1.688;2023-03-15T23:23:50;100191.16;;;4.46;71.00
70256;BME280;57669;52.624;-1.688;2023-03-15T23:26:15;100189.98;;;4.48;71.38
70256;BME280;57669;52.624;-1.688;2023-03-15T23:28:41;100182.65;;;4.58;69.92
70256;BME280;57669;52.624;-1.688;2023-03-15T23:31:06;100177.74;;;3.90;72.35
70256;BME280;57669;52.624;-1.688;2023-03-15T23:33:32;100176.52;;;4.95;69.72
70256;BME280;57669;52.624;-1.688;2023-03-15T23:35:56;100164.30;;;5.23;69.45
70256;BME280;57669;52.624;-1.688;2023-03-15T23:38:22;100157.75;;;5.47;68.48
70256;BME280;57669;52.624;-1.688;2023-03-15T23:40:52;100159.89;;;5.19;69.46
70256;BME280;57669;52.624;-1.688;2023-03-15T23:43:12;100160.00;;;4.30;71.55
70256;BME280;57669;52.624;-1.688;2023-03-15T23:45:40;100157.84;;;4.62;72.16
70256;BME280;57669;52.624;-1.688;2023-03-15T23:48:04;100154.64;;;5.30;69.28
70256;BME280;57669;52.624;-1.688;2023-03-15T23:50:28;100148.68;;;5.23;69.89
70256;BME280;57669;52.624;-1.688;2023-03-15T23:52:55;100141.58;;;5.31;69.61
70256;BME280;57669;52.624;-1.688;2023-03-15T23:55:20;100134.84;;;4.68;71.17
70256;BME280;57669;52.624;-1.688;2023-03-15T23:57:45;100132.98;;;4.86;72.10
